sensor_id;sensor_type;location;lat;lon;timestamp;P1;durP1;ratioP1;P2;durP2;ratioP2
39728;SDS011;25402;42.004;23.088;2024-03-08T00:01:00;10.32;;;5.40;;
39728;SDS011;25402;42.004;23.088;2024-03-08T00:03:27;11.18;;;5.20;;
39728;SDS011;25402;42.004;23.088;2024-03-08T00:05:54;9.27;;;4.95;;
39728;SDS011;25402;42.004;23.088;2024-03-08T00:08:23;8.15;;;4.40;;
39728;SDS011;25402;42.004;23.088;2024-03-08T00:10:50;10.95;;;4.53;;
39728;SDS011;25402;42.004;23.088;2024-03-08T00:13:18;10.60;;;4.72;;
39728;SDS011;25402;42.004;23.088;2024-03-08T00:15:45;9.38;;;4.18;;
39728;SDS011;25402;42.004;23.088;2024-03-08T00:18:12;8.55;;;4.78;;
39728;SDS011;25402;42.004;23.088;2024-03-08T00:20:39;8.48;;;4.22;;
39728;SDS011;25402;42.004;23.088;2024-03-08T00:23:06;11.40;;;4.75;;
39728;SDS011;25402;42.004;23.088;2024-03-08T00:25:34;11.05;;;4.68;;
39728;SDS011;25402;42.004;23.088;2024-03-08T00:28:01;11.60;;;5.00;;
39728;SDS011;25402;42.004;23.088;2024-03-08T00:30:30;7.68;;;4.38;;
39728;SDS011;25402;42.004;23.088;2024-03-08T00:32:57;8.43;;;4.72;;
39728;SDS011;25402;42.004;23.088;2024-03-08T00:35:24;9.35;;;4.60;;
39728;SDS011;25402;42.004;23.088;2024-03-08T00:37:51;9.30;;;4.88;;
39728;SDS011;25402;42.004;23.088;2024-03-08T00:40:21;9.00;;;4.82;;
39728;SDS011;25402;42.004;23.088;2024-03-08T00:42:50;14.02;;;4.80;;
39728;SDS011;25402;42.004;23.088;2024-03-08T00:45:18;8.80;;;4.63;;
39728;SDS011;25402;42.004;23.088;2024-03-08T00:47:45;10.70;;;4.50;;
39728;SDS011;25402;42.004;23.088;2024-03-08T00:50:12;12.23;;;4.85;;
39728;SDS011;25402;42.004;23.088;2024-03-08T00:52:39;11.07;;;5.93;;
39728;SDS011;25402;42.004;23.088;2024-03-08T00:55:06;11.10;;;5.00;;
39728;SDS011;25402;42.004;23.088;2024-03-08T00:57:35;10.90;;;5.78;;
39728;SDS011;25402;42.004;23.088;2024-03-08T01:00:06;11.95;;;5.97;;
39728;SDS011;25402;42.004;23.088;2024-03-08T01:02:37;11.10;;;6.22;;
39728;SDS011;25402;42.004;23.088;2024-03-08T01:05:04;10.63;;;6.05;;
39728;SDS011;25402;42.004;23.088;2024-03-08T01:07:32;9.77;;;5.65;;
39728;SDS011;25402;42.004;23.088;2024-03-08T01:10:00;11.32;;;6.00;;
39728;SDS011;25402;42.004;23.088;2024-03-08T01:12:28;11.25;;;6.10;;
39728;SDS011;25402;42.004;23.088;2024-03-08T01:14:55;12.38;;;6.28;;
39728;SDS011;25402;42.004;23.088;2024-03-08T01:17:25;11.52;;;6.65;;
39728;SDS011;25402;42.004;23.088;2024-03-08T01:19:52;10.73;;;5.78;;
39728;SDS011;25402;42.004;23.088;2024-03-08T01:22:19;14.93;;;6.75;;
39728;SDS011;25402;42.004;23.088;2024-03-08T01:24:47;14.70;;;6.78;;
39728;SDS011;25402;42.004;23.088;2024-03-08T01:27:14;13.25;;;6.38;;
39728;SDS011;25402;42.004;23.088;2024-03-08T01:29:41;11.27;;;6.22;;
39728;SDS011;25402;42.004;23.088;2024-03-08T01:32:08;13.68;;;6.20;;
39728;SDS011;25402;42.004;23.088;2024-03-08T01:34:37;18.15;;;6.07;;
39728;SDS011;25402;42.004;23.088;2024-03-08T01:37:04;11.60;;;6.32;;
39728;SDS011;25402;42.004;23.088;2024-03-08T01:39:31;13.50;;;6.95;;
39728;SDS011;25402;42.004;23.088;2024-03-08T01:41:58;11.20;;;5.97;;
39728;SDS011;25402;42.004;23.088;2024-03-08T01:44:26;11.25;;;5.93;;
39728;SDS011;25402;42.004;23.088;2024-03-08T01:46:53;12.13;;;6.50;;
39728;SDS011;25402;42.004;23.088;2024-03-08T01:49:21;10.82;;;6.10;;
39728;SDS011;25402;42.004;23.088;2024-03-08T01:51:51;12.43;;;6.53;;
39728;SDS011;25402;42.004;23.088;2024-03-08T01:54:21;11.23;;;5.85;;
39728;SDS011;25402;42.004;23.088;2024-03-08T01:56:50;14.43;;;6.38;;
39728;SDS011;25402;42.004;23.088;2024-03-08T01:59:18;18.75;;;8.38;;
39728;SDS011;25402;42.004;23.088;2024-03-08T02:01:45;30.42;;;10.25;;
39728;SDS011;25402;42.004;23.088;2024-03-08T02:04:13;27.35;;;10.23;;
39728;SDS011;25402;42.004;23.088;2024-03-08T02:06:40;23.13;;;9.55;;
39728;SDS011;25402;42.004;23.088;2024-03-08T02:09:08;23.05;;;9.98;;
39728;SDS011;25402;42.004;23.088;2024-03-08T02:11:35;33.50;;;11.52;;
39728;SDS011;25402;42.004;23.088;2024-03-08T02:14:02;26.30;;;10.77;;
39728;SDS011;25402;42.004;23.088;2024-03-08T02:16:31;19.70;;;8.70;;
39728;SDS011;25402;42.004;23.088;2024-03-08T02:18:59;14.57;;;7.47;;
39728;SDS011;25402;42.004;23.088;2024-03-08T02:21:27;19.20;;;8.20;;
39728;SDS011;25402;42.004;23.088;2024-03-08T02:23:55;17.67;;;7.25;;
39728;SDS011;25402;42.004;23.088;2024-03-08T02:26:22;14.75;;;6.85;;
39728;SDS011;25402;42.004;23.088;2024-03-08T02:28:49;15.45;;;7.63;;
39728;SDS011;25402;42.004;23.088;2024-03-08T02:31:16;15.80;;;6.88;;
39728;SDS011;25402;42.004;23.088;2024-03-08T02:33:43;25.58;;;6.90;;
39728;SDS011;25402;42.004;23.088;2024-03-08T02:36:12;14.35;;;6.50;;
39728;SDS011;25402;42.004;23.088;2024-03-08T02:38:41;16.38;;;6.70;;
39728;SDS011;25402;42.004;23.088;2024-03-08T02:41:08;10.88;;;6.20;;
39728;SDS011;25402;42.004;23.088;2024-03-08T02:43:35;12.40;;;6.40;;
39728;SDS011;25402;42.004;23.088;2024-03-08T02:46:03;13.65;;;6.75;;
39728;SDS011;25402;42.004;23.088;2024-03-08T02:48:30;12.90;;;6.70;;
39728;SDS011;25402;42.004;23.088;2024-03-08T02:50:57;13.15;;;6.53;;
39728;SDS011;25402;42.004;23.088;2024-03-08T02:53:24;13.38;;;6.97;;
39728;SDS011;25402;42.004;23.088;2024-03-08T02:55:53;12.30;;;6.75;;
39728;SDS011;25402;42.004;23.088;2024-03-08T02:58:20;15.57;;;7.07;;
39728;SDS011;25402;42.004;23.088;2024-03-08T03:00:48;12.85;;;6.65;;
39728;SDS011;25402;42.004;23.088;2024-03-08T03:03:15;9.73;;;6.18;;
39728;SDS011;25402;42.004;23.088;2024-03-08T03:05:42;12.75;;;6.40;;
39728;SDS011;25402;42.004;23.088;2024-03-08T03:08:09;16.33;;;6.70;;
39728;SDS011;25402;42.004;23.088;2024-03-08T03:10:37;12.05;;;6.93;;
39728;SDS011;25402;42.004;23.088;2024-03-08T03:13:05;12.70;;;6.97;;
39728;SDS011;25402;42.004;23.088;2024-03-08T03:15:33;14.48;;;7.13;;
39728;SDS011;25402;42.004;23.088;2024-03-08T03:18:01;17.83;;;6.90;;
39728;SDS011;25402;42.004;23.088;2024-03-08T03:20:29;17.38;;;7.38;;
39728;SDS011;25402;42.004;23.088;2024-03-08T03:23:02;12.60;;;5.85;;
39728;SDS011;25402;42.004;23.088;2024-03-08T03:25:29;11.77;;;6.75;;
39728;SDS011;25402;42.004;23.088;2024-03-08T03:28:00;11.77;;;6.40;;
39728;SDS011;25402;42.004;23.088;2024-03-08T03:30:28;11.77;;;6.53;;
39728;SDS011;25402;42.004;23.088;2024-03-08T03:32:58;10.68;;;6.32;;
39728;SDS011;25402;42.004;23.088;2024-03-08T03:35:26;13.15;;;6.65;;
39728;SDS011;25402;42.004;23.088;2024-03-08T03:37:54;13.73;;;7.28;;
39728;SDS011;25402;42.004;23.088;2024-03-08T03:40:31;14.32;;;7.40;;
39728;SDS011;25402;42.004;23.088;2024-03-08T03:42:59;15.27;;;7.57;;
39728;SDS011;25402;42.004;23.088;2024-03-08T03:45:26;18.83;;;6.90;;
39728;SDS011;25402;42.004;23.088;2024-03-08T03:47:54;19.08;;;7.10;;
39728;SDS011;25402;42.004;23.088;2024-03-08T03:50:21;17.20;;;8.07;;
39728;SDS011;25402;42.004;23.088;2024-03-08T03:52:49;15.50;;;8.10;;
39728;SDS011;25402;42.004;23.088;2024-03-08T03:55:16;13.85;;;7.18;;
39728;SDS011;25402;42.004;23.088;2024-03-08T03:57:44;17.90;;;8.15;;
39728;SDS011;25402;42.004;23.088;2024-03-08T04:00:12;16.35;;;6.53;;
39728;SDS011;25402;42.004;23.088;2024-03-08T04:02:40;15.35;;;6.38;;
39728;SDS011;25402;42.004;23.088;2024-03-08T04:05:09;15.20;;;6.75;;
39728;SDS011;25402;42.004;23.088;2024-03-08T04:07:37;11.68;;;6.18;;
39728;SDS011;25402;42.004;23.088;2024-03-08T04:10:05;13.23;;;6.53;;
39728;SDS011;25402;42.004;23.088;2024-03-08T04:12:35;14.63;;;7.03;;
39728;SDS011;25402;42.004;23.088;2024-03-08T04:15:04;17.00;;;7.75;;
39728;SDS011;25402;42.004;23.088;2024-03-08T04:17:33;18.33;;;8.10;;
39728;SDS011;25402;42.004;23.088;2024-03-08T04:20:02;18.85;;;7.57;;
39728;SDS011;25402;42.004;23.088;2024-03-08T04:22:36;13.25;;;7.63;;
39728;SDS011;25402;42.004;23.088;2024-03-08T04:25:04;11.82;;;5.57;;
39728;SDS011;25402;42.004;23.088;2024-03-08T04:27:32;19.88;;;5.53;;
39728;SDS011;25402;42.004;23.088;2024-03-08T04:29:59;41.05;;;5.22;;
39728;SDS011;25402;42.004;23.088;2024-03-08T04:32:27;34.42;;;5.28;;
39728;SDS011;25402;42.004;23.088;2024-03-08T04:34:54;37.28;;;5.70;;
39728;SDS011;25402;42.004;23.088;2024-03-08T04:37:21;19.02;;;4.80;;
39728;SDS011;25402;42.004;23.088;2024-03-08T04:39:50;22.23;;;4.82;;
39728;SDS011;25402;42.004;23.088;2024-03-08T04:42:17;16.25;;;5.00;;
39728;SDS011;25402;42.004;23.088;2024-03-08T04:44:45;22.77;;;5.70;;
39728;SDS011;25402;42.004;23.088;2024-03-08T04:47:12;12.73;;;5.03;;
39728;SDS011;25402;42.004;23.088;2024-03-08T04:49:39;14.50;;;5.38;;
39728;SDS011;25402;42.004;23.088;2024-03-08T04:52:06;16.67;;;6.18;;
39728;SDS011;25402;42.004;23.088;2024-03-08T04:54:33;10.25;;;5.55;;
39728;SDS011;25402;42.004;23.088;2024-03-08T04:57:02;18.25;;;6.18;;
39728;SDS011;25402;42.004;23.088;2024-03-08T04:59:30;16.38;;;6.70;;
39728;SDS011;25402;42.004;23.088;2024-03-08T05:01:57;17.35;;;5.93;;
39728;SDS011;25402;42.004;23.088;2024-03-08T05:04:24;14.07;;;5.75;;
39728;SDS011;25402;42.004;23.088;2024-03-08T05:06:51;15.95;;;5.28;;
39728;SDS011;25402;42.004;23.088;2024-03-08T05:09:18;16.33;;;9.10;;
39728;SDS011;25402;42.004;23.088;2024-03-08T05:11:46;17.30;;;7.00;;
39728;SDS011;25402;42.004;23.088;2024-03-08T05:14:14;20.42;;;8.15;;
39728;SDS011;25402;42.004;23.088;2024-03-08T05:16:45;16.08;;;6.60;;
39728;SDS011;25402;42.004;23.088;2024-03-08T05:19:16;13.70;;;6.90;;
39728;SDS011;25402;42.004;23.088;2024-03-08T05:21:44;17.58;;;6.80;;
39728;SDS011;25402;42.004;23.088;2024-03-08T05:24:14;15.15;;;8.55;;
39728;SDS011;25402;42.004;23.088;2024-03-08T05:26:43;14.63;;;7.15;;
39728;SDS011;25402;42.004;23.088;2024-03-08T05:29:11;17.77;;;8.30;;
39728;SDS011;25402;42.004;23.088;2024-03-08T05:31:45;16.90;;;8.18;;
39728;SDS011;25402;42.004;23.088;2024-03-08T05:34:14;13.85;;;7.57;;
39728;SDS011;25402;42.004;23.088;2024-03-08T05:36:41;15.38;;;7.75;;
39728;SDS011;25402;42.004;23.088;2024-03-08T05:39:09;13.82;;;7.03;;
39728;SDS011;25402;42.004;23.088;2024-03-08T05:41:37;13.40;;;7.88;;
39728;SDS011;25402;42.004;23.088;2024-03-08T05:44:04;14.73;;;7.57;;
39728;SDS011;25402;42.004;23.088;2024-03-08T05:46:31;13.75;;;8.10;;
39728;SDS011;25402;42.004;23.088;2024-03-08T05:49:00;15.68;;;7.95;;
39728;SDS011;25402;42.004;23.088;2024-03-08T05:51:30;17.48;;;7.97;;
39728;SDS011;25402;42.004;23.088;2024-03-08T05:53:59;16.80;;;8.63;;
39728;SDS011;25402;42.004;23.088;2024-03-08T05:56:28;31.35;;;15.23;;
39728;SDS011;25402;42.004;23.088;2024-03-08T05:58:55;31.40;;;14.82;;
39728;SDS011;25402;42.004;23.088;2024-03-08T06:01:23;28.08;;;13.77;;
39728;SDS011;25402;42.004;23.088;2024-03-08T06:03:50;27.13;;;13.70;;
39728;SDS011;25402;42.004;23.088;2024-03-08T06:06:20;27.63;;;11.85;;
39728;SDS011;25402;42.004;23.088;2024-03-08T06:08:48;23.60;;;12.57;;
39728;SDS011;25402;42.004;23.088;2024-03-08T06:11:15;28.13;;;12.75;;
39728;SDS011;25402;42.004;23.088;2024-03-08T06:13:43;23.00;;;12.68;;
39728;SDS011;25402;42.004;23.088;2024-03-08T06:16:10;24.25;;;12.00;;
39728;SDS011;25402;42.004;23.088;2024-03-08T06:18:37;28.88;;;12.32;;
39728;SDS011;25402;42.004;23.088;2024-03-08T06:21:05;30.95;;;15.70;;
39728;SDS011;25402;42.004;23.088;2024-03-08T06:23:34;24.67;;;12.57;;
39728;SDS011;25402;42.004;23.088;2024-03-08T06:26:04;28.50;;;12.65;;
39728;SDS011;25402;42.004;23.088;2024-03-08T06:28:32;25.83;;;12.05;;
39728;SDS011;25402;42.004;23.088;2024-03-08T06:31:00;24.33;;;12.15;;
39728;SDS011;25402;42.004;23.088;2024-03-08T06:33:29;24.70;;;12.70;;
39728;SDS011;25402;42.004;23.088;2024-03-08T06:35:57;20.90;;;12.63;;
39728;SDS011;25402;42.004;23.088;2024-03-08T06:38:24;27.75;;;12.55;;
39728;SDS011;25402;42.004;23.088;2024-03-08T06:40:53;30.92;;;13.00;;
39728;SDS011;25402;42.004;23.088;2024-03-08T06:43:20;24.48;;;13.52;;
39728;SDS011;25402;42.004;23.088;2024-03-08T06:45:47;28.33;;;11.93;;
39728;SDS011;25402;42.004;23.088;2024-03-08T06:48:14;20.33;;;11.75;;
39728;SDS011;25402;42.004;23.088;2024-03-08T06:50:42;20.17;;;12.25;;
39728;SDS011;25402;42.004;23.088;2024-03-08T06:53:11;22.05;;;11.48;;
39728;SDS011;25402;42.004;23.088;2024-03-08T06:55:38;18.92;;;10.95;;
39728;SDS011;25402;42.004;23.088;2024-03-08T06:58:07;24.60;;;10.60;;
39728;SDS011;25402;42.004;23.088;2024-03-08T07:00:35;18.02;;;10.45;;
39728;SDS011;25402;42.004;23.088;2024-03-08T07:03:03;20.45;;;10.85;;
39728;SDS011;25402;42.004;23.088;2024-03-08T07:05:37;21.15;;;10.55;;
39728;SDS011;25402;42.004;23.088;2024-03-08T07:08:05;20.17;;;10.93;;
39728;SDS011;25402;42.004;23.088;2024-03-08T07:10:32;21.63;;;12.02;;
39728;SDS011;25402;42.004;23.088;2024-03-08T07:13:00;20.33;;;11.85;;
39728;SDS011;25402;42.004;23.088;2024-03-08T07:15:29;18.80;;;9.38;;
39728;SDS011;25402;42.004;23.088;2024-03-08T07:17:56;19.70;;;9.40;;
39728;SDS011;25402;42.004;23.088;2024-03-08T07:20:25;19.33;;;8.82;;
39728;SDS011;25402;42.004;23.088;2024-03-08T07:22:53;20.25;;;9.90;;
39728;SDS011;25402;42.004;23.088;2024-03-08T07:25:21;17.40;;;9.80;;
39728;SDS011;25402;42.004;23.088;2024-03-08T07:27:49;15.88;;;9.98;;
39728;SDS011;25402;42.004;23.088;2024-03-08T07:30:17;18.02;;;9.20;;
39728;SDS011;25402;42.004;23.088;2024-03-08T07:32:59;19.17;;;8.88;;
39728;SDS011;25402;42.004;23.088;2024-03-08T07:35:27;14.10;;;7.50;;
39728;SDS011;25402;42.004;23.088;2024-03-08T07:37:55;17.17;;;9.57;;
39728;SDS011;25402;42.004;23.088;2024-03-08T07:40:22;22.80;;;9.35;;
39728;SDS011;25402;42.004;23.088;2024-03-08T07:42:49;22.17;;;8.88;;
39728;SDS011;25402;42.004;23.088;2024-03-08T07:45:16;16.73;;;8.85;;
39728;SDS011;25402;42.004;23.088;2024-03-08T07:47:43;18.45;;;7.72;;
39728;SDS011;25402;42.004;23.088;2024-03-08T07:50:12;17.33;;;8.15;;
39728;SDS011;25402;42.004;23.088;2024-03-08T07:52:41;15.20;;;7.85;;
39728;SDS011;25402;42.004;23.088;2024-03-08T07:55:09;15.02;;;7.65;;
39728;SDS011;25402;42.004;23.088;2024-03-08T07:57:36;14.45;;;6.70;;
39728;SDS011;25402;42.004;23.088;2024-03-08T08:00:05;19.77;;;7.32;;
39728;SDS011;25402;42.004;23.088;2024-03-08T08:02:42;38.10;;;19.05;;
39728;SDS011;25402;42.004;23.088;2024-03-08T08:05:12;59.08;;;31.25;;
39728;SDS011;25402;42.004;23.088;2024-03-08T08:07:39;27.95;;;17.67;;
39728;SDS011;25402;42.004;23.088;2024-03-08T08:10:11;51.97;;;26.88;;
39728;SDS011;25402;42.004;23.088;2024-03-08T08:12:43;48.15;;;25.10;;
39728;SDS011;25402;42.004;23.088;2024-03-08T08:15:11;45.33;;;21.70;;
39728;SDS011;25402;42.004;23.088;2024-03-08T08:17:38;18.95;;;8.27;;
39728;SDS011;25402;42.004;23.088;2024-03-08T08:20:05;15.35;;;8.73;;
39728;SDS011;25402;42.004;23.088;2024-03-08T08:22:34;20.52;;;7.97;;
39728;SDS011;25402;42.004;23.088;2024-03-08T08:25:01;14.43;;;7.53;;
39728;SDS011;25402;42.004;23.088;2024-03-08T08:27:28;18.42;;;6.82;;
39728;SDS011;25402;42.004;23.088;2024-03-08T08:29:55;9.77;;;5.90;;
39728;SDS011;25402;42.004;23.088;2024-03-08T08:32:23;10.13;;;5.60;;
39728;SDS011;25402;42.004;23.088;2024-03-08T08:34:51;8.90;;;5.63;;
39728;SDS011;25402;42.004;23.088;2024-03-08T08:37:18;17.25;;;6.97;;
39728;SDS011;25402;42.004;23.088;2024-03-08T08:39:47;11.35;;;5.50;;
39728;SDS011;25402;42.004;23.088;2024-03-08T08:42:16;8.05;;;4.80;;
39728;SDS011;25402;42.004;23.088;2024-03-08T08:44:43;9.52;;;4.90;;
39728;SDS011;25402;42.004;23.088;2024-03-08T08:47:11;7.25;;;4.38;;
39728;SDS011;25402;42.004;23.088;2024-03-08T08:49:38;8.73;;;5.00;;
39728;SDS011;25402;42.004;23.088;2024-03-08T08:52:05;10.18;;;4.78;;
39728;SDS011;25402;42.004;23.088;2024-03-08T08:54:32;7.97;;;4.57;;
39728;SDS011;25402;42.004;23.088;2024-03-08T08:57:01;8.50;;;4.40;;
39728;SDS011;25402;42.004;23.088;2024-03-08T08:59:32;8.15;;;4.13;;
39728;SDS011;25402;42.004;23.088;2024-03-08T09:02:00;7.75;;;4.18;;
39728;SDS011;25402;42.004;23.088;2024-03-08T09:04:28;9.60;;;5.13;;
39728;SDS011;25402;42.004;23.088;2024-03-08T09:06:58;10.10;;;4.65;;
39728;SDS011;25402;42.004;23.088;2024-03-08T09:09:26;10.10;;;4.13;;
39728;SDS011;25402;42.004;23.088;2024-03-08T09:11:54;10.63;;;4.38;;
39728;SDS011;25402;42.004;23.088;2024-03-08T09:14:23;9.35;;;4.00;;
39728;SDS011;25402;42.004;23.088;2024-03-08T09:16:51;6.53;;;3.20;;
39728;SDS011;25402;42.004;23.088;2024-03-08T09:19:18;6.25;;;3.30;;
39728;SDS011;25402;42.004;23.088;2024-03-08T09:21:45;7.10;;;3.63;;
39728;SDS011;25402;42.004;23.088;2024-03-08T09:24:13;6.38;;;3.45;;
39728;SDS011;25402;42.004;23.088;2024-03-08T09:26:41;5.30;;;3.03;;
39728;SDS011;25402;42.004;23.088;2024-03-08T09:29:08;4.40;;;2.80;;
39728;SDS011;25402;42.004;23.088;2024-03-08T09:31:38;4.63;;;3.15;;
39728;SDS011;25402;42.004;23.088;2024-03-08T09:34:05;8.10;;;2.75;;
39728;SDS011;25402;42.004;23.088;2024-03-08T09:36:33;5.90;;;2.90;;
39728;SDS011;25402;42.004;23.088;2024-03-08T09:39:00;5.15;;;2.50;;
39728;SDS011;25402;42.004;23.088;2024-03-08T09:41:28;7.32;;;2.60;;
39728;SDS011;25402;42.004;23.088;2024-03-08T09:43:56;11.38;;;4.25;;
39728;SDS011;25402;42.004;23.088;2024-03-08T09:46:25;8.40;;;2.92;;
39728;SDS011;25402;42.004;23.088;2024-03-08T09:48:53;5.43;;;2.72;;
39728;SDS011;25402;42.004;23.088;2024-03-08T09:51:21;5.32;;;3.00;;
39728;SDS011;25402;42.004;23.088;2024-03-08T09:54:05;4.57;;;2.53;;
39728;SDS011;25402;42.004;23.088;2024-03-08T09:56:33;3.65;;;2.30;;
39728;SDS011;25402;42.004;23.088;2024-03-08T09:59:01;5.18;;;2.40;;
39728;SDS011;25402;42.004;23.088;2024-03-08T10:02:06;14.48;;;2.50;;
39728;SDS011;25402;42.004;23.088;2024-03-08T10:04:42;4.90;;;2.45;;
39728;SDS011;25402;42.004;23.088;2024-03-08T10:07:11;3.33;;;2.20;;
39728;SDS011;25402;42.004;23.088;2024-03-08T10:09:39;4.13;;;2.97;;
39728;SDS011;25402;42.004;23.088;2024-03-08T10:12:07;6.15;;;2.75;;
39728;SDS011;25402;42.004;23.088;2024-03-08T10:14:38;4.72;;;2.78;;
39728;SDS011;25402;42.004;23.088;2024-03-08T10:17:07;9.95;;;3.97;;
39728;SDS011;25402;42.004;23.088;2024-03-08T10:19:34;6.10;;;2.50;;
39728;SDS011;25402;42.004;23.088;2024-03-08T10:22:03;4.10;;;2.60;;
39728;SDS011;25402;42.004;23.088;2024-03-08T10:24:31;4.15;;;2.83;;
39728;SDS011;25402;42.004;23.088;2024-03-08T10:27:00;5.65;;;2.67;;
39728;SDS011;25402;42.004;23.088;2024-03-08T10:29:30;4.30;;;3.20;;
39728;SDS011;25402;42.004;23.088;2024-03-08T10:31:57;4.03;;;3.10;;
39728;SDS011;25402;42.004;23.088;2024-03-08T10:34:25;7.70;;;3.95;;
39728;SDS011;25402;42.004;23.088;2024-03-08T10:36:52;12.27;;;6.10;;
39728;SDS011;25402;42.004;23.088;2024-03-08T10:39:22;6.82;;;4.40;;
39728;SDS011;25402;42.004;23.088;2024-03-08T10:41:52;13.52;;;5.18;;
39728;SDS011;25402;42.004;23.088;2024-03-08T10:47:18;6.57;;;3.00;;
39728;SDS011;25402;42.004;23.088;2024-03-08T10:49:54;5.47;;;3.38;;
39728;SDS011;25402;42.004;23.088;2024-03-08T10:52:29;3.70;;;2.45;;
39728;SDS011;25402;42.004;23.088;2024-03-08T10:54:58;6.28;;;3.20;;
39728;SDS011;25402;42.004;23.088;2024-03-08T10:57:27;3.78;;;2.22;;
39728;SDS011;25402;42.004;23.088;2024-03-08T10:59:56;99.95;;;8.18;;
39728;SDS011;25402;42.004;23.088;2024-03-08T11:02:25;19.10;;;2.72;;
39728;SDS011;25402;42.004;23.088;2024-03-08T11:04:53;3.10;;;2.40;;
39728;SDS011;25402;42.004;23.088;2024-03-08T11:07:21;3.72;;;2.53;;
39728;SDS011;25402;42.004;23.088;2024-03-08T11:09:48;20.75;;;3.03;;
39728;SDS011;25402;42.004;23.088;2024-03-08T11:12:21;8.55;;;2.40;;
39728;SDS011;25402;42.004;23.088;2024-03-08T11:14:52;2.67;;;2.10;;
39728;SDS011;25402;42.004;23.088;2024-03-08T11:20:11;6.50;;;2.50;;
39728;SDS011;25402;42.004;23.088;2024-03-08T11:22:49;3.35;;;2.45;;
39728;SDS011;25402;42.004;23.088;2024-03-08T11:28:09;3.15;;;1.90;;
39728;SDS011;25402;42.004;23.088;2024-03-08T11:30:42;3.85;;;2.10;;
39728;SDS011;25402;42.004;23.088;2024-03-08T11:33:11;5.10;;;2.55;;
39728;SDS011;25402;42.004;23.088;2024-03-08T11:35:39;5.18;;;2.63;;
39728;SDS011;25402;42.004;23.088;2024-03-08T11:38:11;8.82;;;2.15;;
39728;SDS011;25402;42.004;23.088;2024-03-08T11:40:40;8.77;;;1.88;;
39728;SDS011;25402;42.004;23.088;2024-03-08T11:43:09;3.58;;;2.00;;
39728;SDS011;25402;42.004;23.088;2024-03-08T11:45:37;2.17;;;1.73;;
39728;SDS011;25402;42.004;23.088;2024-03-08T11:48:06;3.28;;;2.03;;
39728;SDS011;25402;42.004;23.088;2024-03-08T11:50:33;18.15;;;2.47;;
39728;SDS011;25402;42.004;23.088;2024-03-08T11:53:01;17.08;;;5.57;;
39728;SDS011;25402;42.004;23.088;2024-03-08T11:55:29;7.95;;;3.40;;
39728;SDS011;25402;42.004;23.088;2024-03-08T11:58:00;5.13;;;2.47;;
39728;SDS011;25402;42.004;23.088;2024-03-08T12:00:31;5.72;;;2.47;;
39728;SDS011;25402;42.004;23.088;2024-03-08T12:03:03;21.48;;;2.50;;
39728;SDS011;25402;42.004;23.088;2024-03-08T12:05:32;13.77;;;3.70;;
39728;SDS011;25402;42.004;23.088;2024-03-08T12:07:59;19.42;;;4.13;;
39728;SDS011;25402;42.004;23.088;2024-03-08T12:10:27;21.13;;;4.28;;
39728;SDS011;25402;42.004;23.088;2024-03-08T12:12:54;27.25;;;4.00;;
39728;SDS011;25402;42.004;23.088;2024-03-08T12:15:26;9.52;;;3.45;;
39728;SDS011;25402;42.004;23.088;2024-03-08T12:17:56;6.50;;;3.30;;
39728;SDS011;25402;42.004;23.088;2024-03-08T12:20:24;9.00;;;2.20;;
39728;SDS011;25402;42.004;23.088;2024-03-08T12:22:52;3.00;;;1.83;;
39728;SDS011;25402;42.004;23.088;2024-03-08T12:25:21;4.32;;;2.47;;
39728;SDS011;25402;42.004;23.088;2024-03-08T12:27:49;4.80;;;2.78;;
39728;SDS011;25402;42.004;23.088;2024-03-08T12:30:21;7.25;;;2.33;;
39728;SDS011;25402;42.004;23.088;2024-03-08T12:32:52;5.78;;;2.78;;
39728;SDS011;25402;42.004;23.088;2024-03-08T12:35:23;4.30;;;2.05;;
39728;SDS011;25402;42.004;23.088;2024-03-08T12:37:53;3.40;;;1.70;;
39728;SDS011;25402;42.004;23.088;2024-03-08T12:40:25;3.72;;;1.45;;
39728;SDS011;25402;42.004;23.088;2024-03-08T12:42:56;5.60;;;2.25;;
39728;SDS011;25402;42.004;23.088;2024-03-08T12:45:29;6.15;;;1.75;;
39728;SDS011;25402;42.004;23.088;2024-03-08T12:47:56;9.10;;;2.08;;
39728;SDS011;25402;42.004;23.088;2024-03-08T12:50:26;4.47;;;1.98;;
39728;SDS011;25402;42.004;23.088;2024-03-08T12:52:53;6.72;;;1.70;;
39728;SDS011;25402;42.004;23.088;2024-03-08T12:55:21;4.30;;;2.03;;
39728;SDS011;25402;42.004;23.088;2024-03-08T12:57:49;3.10;;;1.70;;
39728;SDS011;25402;42.004;23.088;2024-03-08T13:00:18;6.25;;;1.88;;
39728;SDS011;25402;42.004;23.088;2024-03-08T13:02:48;13.02;;;7.47;;
39728;SDS011;25402;42.004;23.088;2024-03-08T13:05:16;17.38;;;8.52;;
39728;SDS011;25402;42.004;23.088;2024-03-08T13:07:46;12.15;;;6.68;;
39728;SDS011;25402;42.004;23.088;2024-03-08T13:10:14;11.40;;;5.20;;
39728;SDS011;25402;42.004;23.088;2024-03-08T13:12:41;14.23;;;5.65;;
39728;SDS011;25402;42.004;23.088;2024-03-08T13:15:09;10.65;;;4.43;;
39728;SDS011;25402;42.004;23.088;2024-03-08T13:17:40;7.03;;;1.98;;
39728;SDS011;25402;42.004;23.088;2024-03-08T13:20:10;6.35;;;1.70;;
39728;SDS011;25402;42.004;23.088;2024-03-08T13:22:44;4.78;;;1.70;;
39728;SDS011;25402;42.004;23.088;2024-03-08T13:25:13;2.67;;;1.67;;
39728;SDS011;25402;42.004;23.088;2024-03-08T13:27:41;6.78;;;1.52;;
39728;SDS011;25402;42.004;23.088;2024-03-08T13:30:08;8.95;;;1.40;;
39728;SDS011;25402;42.004;23.088;2024-03-08T13:32:38;6.45;;;1.75;;
39728;SDS011;25402;42.004;23.088;2024-03-08T13:35:08;8.43;;;1.80;;
39728;SDS011;25402;42.004;23.088;2024-03-08T13:37:38;29.40;;;1.95;;
39728;SDS011;25402;42.004;23.088;2024-03-08T13:40:08;10.88;;;1.65;;
39728;SDS011;25402;42.004;23.088;2024-03-08T13:42:39;3.22;;;1.38;;
39728;SDS011;25402;42.004;23.088;2024-03-08T13:45:07;3.88;;;1.30;;
39728;SDS011;25402;42.004;23.088;2024-03-08T13:47:36;2.97;;;1.10;;
39728;SDS011;25402;42.004;23.088;2024-03-08T13:50:05;2.22;;;1.00;;
39728;SDS011;25402;42.004;23.088;2024-03-08T13:52:38;2.17;;;1.08;;
39728;SDS011;25402;42.004;23.088;2024-03-08T13:55:08;2.85;;;1.23;;
39728;SDS011;25402;42.004;23.088;2024-03-08T13:57:38;4.82;;;1.63;;
39728;SDS011;25402;42.004;23.088;2024-03-08T14:00:06;8.68;;;1.65;;
39728;SDS011;25402;42.004;23.088;2024-03-08T14:02:36;11.05;;;1.95;;
39728;SDS011;25402;42.004;23.088;2024-03-08T14:05:06;7.80;;;1.40;;
39728;SDS011;25402;42.004;23.088;2024-03-08T14:07:34;6.00;;;1.30;;
39728;SDS011;25402;42.004;23.088;2024-03-08T14:10:02;3.40;;;1.30;;
39728;SDS011;25402;42.004;23.088;2024-03-08T14:12:33;5.05;;;1.63;;
39728;SDS011;25402;42.004;23.088;2024-03-08T14:15:01;6.20;;;1.73;;
39728;SDS011;25402;42.004;23.088;2024-03-08T14:17:31;8.60;;;1.77;;
39728;SDS011;25402;42.004;23.088;2024-03-08T14:19:58;4.63;;;1.75;;
39728;SDS011;25402;42.004;23.088;2024-03-08T14:22:26;6.85;;;1.48;;
39728;SDS011;25402;42.004;23.088;2024-03-08T14:24:53;3.60;;;1.30;;
39728;SDS011;25402;42.004;23.088;2024-03-08T14:27:22;5.15;;;1.38;;
39728;SDS011;25402;42.004;23.088;2024-03-08T14:29:51;7.93;;;1.38;;
39728;SDS011;25402;42.004;23.088;2024-03-08T14:32:20;88.47;;;4.82;;
39728;SDS011;25402;42.004;23.088;2024-03-08T14:34:49;25.90;;;1.95;;
39728;SDS011;25402;42.004;23.088;2024-03-08T14:37:16;9.68;;;1.40;;
39728;SDS011;25402;42.004;23.088;2024-03-08T14:39:48;6.80;;;1.52;;